sensor_id;sensor_type;location;lat;lon;timestamp;temperature;humidity
37594;DHT22;23441;50.856;6.076;2024-03-08T00:00:48;3.20;99.90
37594;DHT22;23441;50.856;6.076;2024-03-08T00:03:34;3.20;99.90
37594;DHT22;23441;50.856;6.076;2024-03-08T00:06:20;3.10;99.90
37594;DHT22;23441;50.856;6.076;2024-03-08T00:09:06;3.10;99.90
37594;DHT22;23441;50.856;6.076;2024-03-08T00:11:53;3.00;99.90
37594;DHT22;23441;50.856;6.076;2024-03-08T00:14:39;3.00;99.90
37594;DHT22;23441;50.856;6.076;2024-03-08T00:17:25;3.00;99.90
37594;DHT22;23441;50.856;6.076;2024-03-08T00:20:11;3.00;99.90
37594;DHT22;23441;50.856;6.076;2024-03-08T00:22:57;2.90;99.90
37594;DHT22;23441;50.856;6.076;2024-03-08T00:25:43;2.90;99.90
37594;DHT22;23441;50.856;6.076;2024-03-08T00:28:29;2.80;99.90
37594;DHT22;23441;50.856;6.076;2024-03-08T00:31:16;2.80;99.90
37594;DHT22;23441;50.856;6.076;2024-03-08T00:34:02;2.80;99.90
37594;DHT22;23441;50.856;6.076;2024-03-08T00:36:48;2.80;99.90
37594;DHT22;23441;50.856;6.076;2024-03-08T00:39:34;2.70;99.90
37594;DHT22;23441;50.856;6.076;2024-03-08T00:42:20;2.70;99.90
37594;DHT22;23441;50.856;6.076;2024-03-08T00:45:07;2.70;99.90
37594;DHT22;23441;50.856;6.076;2024-03-08T00:47:53;2.60;99.90
37594;DHT22;23441;50.856;6.076;2024-03-08T00:50:39;2.60;99.90
37594;DHT22;23441;50.856;6.076;2024-03-08T00:53:25;2.60;99.90
37594;DHT22;23441;50.856;6.076;2024-03-08T00:56:11;2.60;99.90
37594;DHT22;23441;50.856;6.076;2024-03-08T00:58:57;2.60;99.90
37594;DHT22;23441;50.856;6.076;2024-03-08T01:01:43;2.60;99.90
37594;DHT22;23441;50.856;6.076;2024-03-08T01:04:29;2.60;99.90
37594;DHT22;23441;50.856;6.076;2024-03-08T01:07:15;2.60;99.90
37594;DHT22;23441;50.856;6.076;2024-03-08T01:10:05;2.60;99.90
37594;DHT22;23441;50.856;6.076;2024-03-08T01:12:55;2.50;99.90
37594;DHT22;23441;50.856;6.076;2024-03-08T01:15:42;2.50;99.90
37594;DHT22;23441;50.856;6.076;2024-03-08T01:18:29;2.50;99.90
37594;DHT22;23441;50.856;6.076;2024-03-08T01:21:15;2.50;99.90
37594;DHT22;23441;50.856;6.076;2024-03-08T01:24:00;2.50;99.90
37594;DHT22;23441;50.856;6.076;2024-03-08T01:26:46;2.50;99.90
37594;DHT22;23441;50.856;6.076;2024-03-08T01:29:33;2.40;99.90
37594;DHT22;23441;50.856;6.076;2024-03-08T01:32:18;2.40;99.90
37594;DHT22;23441;50.856;6.076;2024-03-08T01:35:05;2.30;99.90
37594;DHT22;23441;50.856;6.076;2024-03-08T01:37:51;2.20;99.90
37594;DHT22;23441;50.856;6.076;2024-03-08T01:40:37;2.20;99.90
37594;DHT22;23441;50.856;6.076;2024-03-08T01:43:27;2.20;99.90
37594;DHT22;23441;50.856;6.076;2024-03-08T01:46:17;2.10;99.90
37594;DHT22;23441;50.856;6.076;2024-03-08T01:49:04;2.20;99.90
37594;DHT22;23441;50.856;6.076;2024-03-08T01:51:50;2.20;99.90
37594;DHT22;23441;50.856;6.076;2024-03-08T01:54:36;2.10;99.90
37594;DHT22;23441;50.856;6.076;2024-03-08T01:57:22;2.10;99.90
37594;DHT22;23441;50.856;6.076;2024-03-08T02:00:08;2.00;99.90
37594;DHT22;23441;50.856;6.076;2024-03-08T02:02:57;2.00;99.90
37594;DHT22;23441;50.856;6.076;2024-03-08T02:05:43;2.00;99.90
37594;DHT22;23441;50.856;6.076;2024-03-08T02:08:29;2.00;99.90
37594;DHT22;23441;50.856;6.076;2024-03-08T02:11:15;2.00;99.90
37594;DHT22;23441;50.856;6.076;2024-03-08T02:14:01;1.90;99.90
37594;DHT22;23441;50.856;6.076;2024-03-08T02:16:47;1.90;99.90
37594;DHT22;23441;50.856;6.076;2024-03-08T02:19:34;1.90;99.90
37594;DHT22;23441;50.856;6.076;2024-03-08T02:22:22;1.80;99.90
37594;DHT22;23441;50.856;6.076;2024-03-08T02:25:08;1.80;99.90
37594;DHT22;23441;50.856;6.076;2024-03-08T02:27:54;1.80;99.90
37594;DHT22;23441;50.856;6.076;2024-03-08T02:30:41;1.70;99.90
37594;DHT22;23441;50.856;6.076;2024-03-08T02:33:27;1.70;99.90
37594;DHT22;23441;50.856;6.076;2024-03-08T02:36:14;1.80;99.90
37594;DHT22;23441;50.856;6.076;2024-03-08T02:39:02;1.80;99.90
37594;DHT22;23441;50.856;6.076;2024-03-08T02:41:48;1.70;99.90
37594;DHT22;23441;50.856;6.076;2024-03-08T02:44:34;1.70;99.90
37594;DHT22;23441;50.856;6.076;2024-03-08T02:47:20;1.70;99.90
37594;DHT22;23441;50.856;6.076;2024-03-08T02:50:06;1.60;99.90
37594;DHT22;23441;50.856;6.076;2024-03-08T02:52:53;1.70;99.90
37594;DHT22;23441;50.856;6.076;2024-03-08T02:55:40;1.60;99.90
37594;DHT22;23441;50.856;6.076;2024-03-08T02:58:26;1.50;99.90
37594;DHT22;23441;50.856;6.076;2024-03-08T03:01:12;1.50;99.90
37594;DHT22;23441;50.856;6.076;2024-03-08T03:03:58;1.60;99.90
37594;DHT22;23441;50.856;6.076;2024-03-08T03:06:44;1.60;99.90
37594;DHT22;23441;50.856;6.076;2024-03-08T03:09:31;1.50;99.90
37594;DHT22;23441;50.856;6.076;2024-03-08T03:12:18;1.50;99.90
37594;DHT22;23441;50.856;6.076;2024-03-08T03:15:04;1.50;99.90
37594;DHT22;23441;50.856;6.076;2024-03-08T03:17:52;1.40;99.90
37594;DHT22;23441;50.856;6.076;2024-03-08T03:20:38;1.50;99.90
37594;DHT22;23441;50.856;6.076;2024-03-08T03:23:28;1.40;99.90
37594;DHT22;23441;50.856;6.076;2024-03-08T03:26:18;1.40;99.90
37594;DHT22;23441;50.856;6.076;2024-03-08T03:29:05;1.40;99.90
37594;DHT22;23441;50.856;6.076;2024-03-08T03:31:54;1.40;99.90
37594;DHT22;23441;50.856;6.076;2024-03-08T03:34:41;1.40;99.90
37594;DHT22;23441;50.856;6.076;2024-03-08T03:37:27;1.30;99.90
37594;DHT22;23441;50.856;6.076;2024-03-08T03:40:14;1.40;99.90
37594;DHT22;23441;50.856;6.076;2024-03-08T03:43:00;1.40;99.90
37594;DHT22;23441;50.856;6.076;2024-03-08T03:45:47;1.30;99.90
37594;DHT22;23441;50.856;6.076;2024-03-08T03:48:33;1.30;99.90
37594;DHT22;23441;50.856;6.076;2024-03-08T03:51:19;1.30;99.90
37594;DHT22;23441;50.856;6.076;2024-03-08T03:54:05;1.30;99.90
37594;DHT22;23441;50.856;6.076;2024-03-08T03:56:51;1.30;99.90
37594;DHT22;23441;50.856;6.076;2024-03-08T03:59:38;1.30;99.90
37594;DHT22;23441;50.856;6.076;2024-03-08T04:02:26;1.30;99.90
37594;DHT22;23441;50.856;6.076;2024-03-08T04:05:12;1.30;99.90
37594;DHT22;23441;50.856;6.076;2024-03-08T04:07:58;1.30;99.90
37594;DHT22;23441;50.856;6.076;2024-03-08T04:10:44;1.30;99.90
37594;DHT22;23441;50.856;6.076;2024-03-08T04:13:30;1.30;99.90
37594;DHT22;23441;50.856;6.076;2024-03-08T04:16:16;1.30;99.90
37594;DHT22;23441;50.856;6.076;2024-03-08T04:19:02;1.20;99.90
37594;DHT22;23441;50.856;6.076;2024-03-08T04:21:50;1.20;99.90
37594;DHT22;23441;50.856;6.076;2024-03-08T04:24:36;1.10;99.90
37594;DHT22;23441;50.856;6.076;2024-03-08T04:27:22;1.20;99.90
37594;DHT22;23441;50.856;6.076;2024-03-08T04:30:08;1.10;99.90
37594;DHT22;23441;50.856;6.076;2024-03-08T04:32:54;1.10;99.90
37594;DHT22;23441;50.856;6.076;2024-03-08T04:35:40;1.10;99.90
37594;DHT22;23441;50.856;6.076;2024-03-08T04:38:26;1.10;99.90
37594;DHT22;23441;50.856;6.076;2024-03-08T04:41:12;1.10;99.90
37594;DHT22;23441;50.856;6.076;2024-03-08T04:43:58;1.10;99.90
37594;DHT22;23441;50.856;6.076;2024-03-08T04:46:44;1.00;99.90
37594;DHT22;23441;50.856;6.076;2024-03-08T04:49:34;1.00;99.90
37594;DHT22;23441;50.856;6.076;2024-03-08T04:52:20;1.00;99.90
37594;DHT22;23441;50.856;6.076;2024-03-08T04:55:07;1.00;99.90
37594;DHT22;23441;50.856;6.076;2024-03-08T04:57:53;1.10;99.90
37594;DHT22;23441;50.856;6.076;2024-03-08T05:00:39;1.00;99.90
37594;DHT22;23441;50.856;6.076;2024-03-08T05:03:25;1.00;99.90
37594;DHT22;23441;50.856;6.076;2024-03-08T05:06:11;1.00;99.90
37594;DHT22;23441;50.856;6.076;2024-03-08T05:08:57;1.00;99.90
37594;DHT22;23441;50.856;6.076;2024-03-08T05:11:43;1.00;99.90
37594;DHT22;23441;50.856;6.076;2024-03-08T05:14:29;1.00;99.90
37594;DHT22;23441;50.856;6.076;2024-03-08T05:17:16;1.00;99.90
37594;DHT22;23441;50.856;6.076;2024-03-08T05:20:05;1.00;99.90
37594;DHT22;23441;50.856;6.076;2024-03-08T05:22:53;1.00;99.90
37594;DHT22;23441;50.856;6.076;2024-03-08T05:25:39;1.00;99.90
37594;DHT22;23441;50.856;6.076;2024-03-08T05:28:25;1.10;99.90
37594;DHT22;23441;50.856;6.076;2024-03-08T05:31:19;1.10;99.90
37594;DHT22;23441;50.856;6.076;2024-03-08T05:34:05;1.10;99.90
37594;DHT22;23441;50.856;6.076;2024-03-08T05:36:51;1.10;99.90
37594;DHT22;23441;50.856;6.076;2024-03-08T05:39:37;1.10;99.90
37594;DHT22;23441;50.856;6.076;2024-03-08T05:42:23;1.10;99.90
37594;DHT22;23441;50.856;6.076;2024-03-08T05:45:09;1.20;99.90
37594;DHT22;23441;50.856;6.076;2024-03-08T05:47:56;1.10;99.90
37594;DHT22;23441;50.856;6.076;2024-03-08T05:50:43;1.20;99.90
37594;DHT22;23441;50.856;6.076;2024-03-08T05:53:29;1.00;99.90
37594;DHT22;23441;50.856;6.076;2024-03-08T05:56:19;1.00;99.90
37594;DHT22;23441;50.856;6.076;2024-03-08T05:59:05;1.00;99.90
37594;DHT22;23441;50.856;6.076;2024-03-08T06:01:51;1.10;99.90
37594;DHT22;23441;50.856;6.076;2024-03-08T06:04:36;1.00;99.90
37594;DHT22;23441;50.856;6.076;2024-03-08T06:07:23;1.00;99.90
37594;DHT22;23441;50.856;6.076;2024-03-08T06:10:10;1.00;99.90
37594;DHT22;23441;50.856;6.076;2024-03-08T06:12:56;1.00;99.90
37594;DHT22;23441;50.856;6.076;2024-03-08T06:15:42;1.00;99.90
37594;DHT22;23441;50.856;6.076;2024-03-08T06:18:28;1.00;99.90
37594;DHT22;23441;50.856;6.076;2024-03-08T06:21:14;1.10;99.90
37594;DHT22;23441;50.856;6.076;2024-03-08T06:24:02;1.10;99.90
37594;DHT22;23441;50.856;6.076;2024-03-08T06:26:48;1.10;99.90
37594;DHT22;23441;50.856;6.076;2024-03-08T06:29:34;1.10;99.90
37594;DHT22;23441;50.856;6.076;2024-03-08T06:32:20;1.10;99.90
37594;DHT22;23441;50.856;6.076;2024-03-08T06:35:06;1.10;99.90
37594;DHT22;23441;50.856;6.076;2024-03-08T06:37:52;1.10;99.90
37594;DHT22;23441;50.856;6.076;2024-03-08T06:40:38;1.50;99.90
37594;DHT22;23441;50.856;6.076;2024-03-08T06:43:26;1.70;99.90
37594;DHT22;23441;50.856;6.076;2024-03-08T06:46:18;1.80;99.90
37594;DHT22;23441;50.856;6.076;2024-03-08T06:49:06;2.00;99.90
37594;DHT22;23441;50.856;6.076;2024-03-08T06:51:53;2.00;99.90
37594;DHT22;23441;50.856;6.076;2024-03-08T06:54:39;2.40;99.90
37594;DHT22;23441;50.856;6.076;2024-03-08T06:57:25;2.60;99.90
37594;DHT22;23441;50.856;6.076;2024-03-08T07:00:11;2.60;99.90
37594;DHT22;23441;50.856;6.076;2024-03-08T07:02:59;2.70;99.90
37594;DHT22;23441;50.856;6.076;2024-03-08T07:05:48;2.50;99.90
37594;DHT22;23441;50.856;6.076;2024-03-08T07:08:34;2.70;99.90
37594;DHT22;23441;50.856;6.076;2024-03-08T07:11:20;3.00;99.90
37594;DHT22;23441;50.856;6.076;2024-03-08T07:14:06;3.10;99.90
37594;DHT22;23441;50.856;6.076;2024-03-08T07:16:52;3.10;99.90
37594;DHT22;23441;50.856;6.076;2024-03-08T07:19:38;3.00;99.90
37594;DHT22;23441;50.856;6.076;2024-03-08T07:22:24;3.10;99.90
37594;DHT22;23441;50.856;6.076;2024-03-08T07:25:10;2.80;99.90
37594;DHT22;23441;50.856;6.076;2024-03-08T07:28:05;3.10;99.90
37594;DHT22;23441;50.856;6.076;2024-03-08T07:30:52;3.20;99.90
37594;DHT22;23441;50.856;6.076;2024-03-08T07:33:41;3.50;99.90
37594;DHT22;23441;50.856;6.076;2024-03-08T07:36:27;3.80;99.90
37594;DHT22;23441;50.856;6.076;2024-03-08T07:39:13;4.10;99.90
37594;DHT22;23441;50.856;6.076;2024-03-08T07:41:59;4.00;99.90
37594;DHT22;23441;50.856;6.076;2024-03-08T07:44:45;3.70;99.90
37594;DHT22;23441;50.856;6.076;2024-03-08T07:47:34;3.60;99.90
37594;DHT22;23441;50.856;6.076;2024-03-08T07:50:22;3.50;99.90
37594;DHT22;23441;50.856;6.076;2024-03-08T07:53:09;3.40;99.90
37594;DHT22;23441;50.856;6.076;2024-03-08T07:55:55;3.10;99.90
37594;DHT22;23441;50.856;6.076;2024-03-08T07:58:41;3.30;99.90
37594;DHT22;23441;50.856;6.076;2024-03-08T08:01:27;3.30;99.90
37594;DHT22;23441;50.856;6.076;2024-03-08T08:04:13;3.40;99.90
37594;DHT22;23441;50.856;6.076;2024-03-08T08:07:00;3.60;99.90
37594;DHT22;23441;50.856;6.076;2024-03-08T08:09:46;3.60;99.90
37594;DHT22;23441;50.856;6.076;2024-03-08T08:12:32;3.50;99.90
37594;DHT22;23441;50.856;6.076;2024-03-08T08:15:20;3.60;99.90
37594;DHT22;23441;50.856;6.076;2024-03-08T08:18:06;3.80;99.90
37594;DHT22;23441;50.856;6.076;2024-03-08T08:20:52;4.60;99.90
37594;DHT22;23441;50.856;6.076;2024-03-08T08:23:38;5.10;99.90
37594;DHT22;23441;50.856;6.076;2024-03-08T08:26:24;5.50;99.90
37594;DHT22;23441;50.856;6.076;2024-03-08T08:29:12;5.70;99.90
37594;DHT22;23441;50.856;6.076;2024-03-08T08:31:58;5.40;99.90
37594;DHT22;23441;50.856;6.076;2024-03-08T08:34:44;5.00;99.90
37594;DHT22;23441;50.856;6.076;2024-03-08T08:37:31;4.90;99.90
37594;DHT22;23441;50.856;6.076;2024-03-08T08:40:17;4.90;99.90
37594;DHT22;23441;50.856;6.076;2024-03-08T08:43:04;4.70;99.90
37594;DHT22;23441;50.856;6.076;2024-03-08T08:45:50;4.60;99.90
37594;DHT22;23441;50.856;6.076;2024-03-08T08:48:40;4.40;99.90
37594;DHT22;23441;50.856;6.076;2024-03-08T08:51:30;4.20;99.90
37594;DHT22;23441;50.856;6.076;2024-03-08T08:54:19;4.10;99.90
37594;DHT22;23441;50.856;6.076;2024-03-08T08:57:06;4.10;99.90
37594;DHT22;23441;50.856;6.076;2024-03-08T08:59:53;4.10;99.90
37594;DHT22;23441;50.856;6.076;2024-03-08T09:02:39;4.20;99.90
37594;DHT22;23441;50.856;6.076;2024-03-08T09:05:25;4.20;99.90
37594;DHT22;23441;50.856;6.076;2024-03-08T09:08:11;4.20;99.90
37594;DHT22;23441;50.856;6.076;2024-03-08T09:10:58;4.30;99.90
37594;DHT22;23441;50.856;6.076;2024-03-08T09:13:45;4.40;99.90
37594;DHT22;23441;50.856;6.076;2024-03-08T09:16:32;4.50;99.90
37594;DHT22;23441;50.856;6.076;2024-03-08T09:19:18;4.60;99.90
37594;DHT22;23441;50.856;6.076;2024-03-08T09:22:05;4.70;99.90
37594;DHT22;23441;50.856;6.076;2024-03-08T09:24:51;4.70;99.90
37594;DHT22;23441;50.856;6.076;2024-03-08T09:27:37;4.80;99.90
37594;DHT22;23441;50.856;6.076;2024-03-08T09:30:23;4.80;99.90
37594;DHT22;23441;50.856;6.076;2024-03-08T09:33:09;4.90;99.90
37594;DHT22;23441;50.856;6.076;2024-03-08T09:35:55;5.00;99.90
37594;DHT22;23441;50.856;6.076;2024-03-08T09:38:43;5.00;99.90
37594;DHT22;23441;50.856;6.076;2024-03-08T09:41:29;5.10;99.90
37594;DHT22;23441;50.856;6.076;2024-03-08T09:44:16;5.10;99.90
37594;DHT22;23441;50.856;6.076;2024-03-08T09:47:03;5.20;99.90
37594;DHT22;23441;50.856;6.076;2024-03-08T09:49:50;5.40;99.90
37594;DHT22;23441;50.856;6.076;2024-03-08T09:52:36;5.40;99.90
37594;DHT22;23441;50.856;6.076;2024-03-08T09:55:23;5.40;99.90
37594;DHT22;23441;50.856;6.076;2024-03-08T09:58:15;5.50;99.90
37594;DHT22;23441;50.856;6.076;2024-03-08T10:01:04;5.70;99.90
37594;DHT22;23441;50.856;6.076;2024-03-08T10:03:52;5.70;99.90
37594;DHT22;23441;50.856;6.076;2024-03-08T10:06:40;5.90;99.90
37594;DHT22;23441;50.856;6.076;2024-03-08T10:09:26;5.90;99.90
37594;DHT22;23441;50.856;6.076;2024-03-08T10:12:13;5.90;99.90
37594;DHT22;23441;50.856;6.076;2024-03-08T10:15:00;6.10;99.90
37594;DHT22;23441;50.856;6.076;2024-03-08T10:17:47;6.00;99.90
37594;DHT22;23441;50.856;6.076;2024-03-08T10:20:33;6.10;99.90
37594;DHT22;23441;50.856;6.076;2024-03-08T10:23:19;6.10;99.90
37594;DHT22;23441;50.856;6.076;2024-03-08T10:26:15;6.30;99.90
37594;DHT22;23441;50.856;6.076;2024-03-08T10:29:04;6.40;99.90
37594;DHT22;23441;50.856;6.076;2024-03-08T10:31:49;6.50;99.90
37594;DHT22;23441;50.856;6.076;2024-03-08T10:34:37;6.50;99.90
37594;DHT22;23441;50.856;6.076;2024-03-08T10:37:23;6.70;99.90
37594;DHT22;23441;50.856;6.076;2024-03-08T10:40:15;6.70;99.90
37594;DHT22;23441;50.856;6.076;2024-03-08T10:43:02;6.90;99.90
37594;DHT22;23441;50.856;6.076;2024-03-08T10:45:54;6.90;99.90
37594;DHT22;23441;50.856;6.076;2024-03-08T10:48:47;7.00;99.90
37594;DHT22;23441;50.856;6.076;2024-03-08T10:51:35;7.10;99.90
37594;DHT22;23441;50.856;6.076;2024-03-08T10:54:22;7.00;99.90
37594;DHT22;23441;50.856;6.076;2024-03-08T10:57:12;7.20;99.90
37594;DHT22;23441;50.856;6.076;2024-03-08T11:00:01;7.20;99.90
37594;DHT22;23441;50.856;6.076;2024-03-08T11:02:54;7.30;99.90
37594;DHT22;23441;50.856;6.076;2024-03-08T11:05:41;7.30;99.90
37594;DHT22;23441;50.856;6.076;2024-03-08T11:08:30;7.50;99.90
37594;DHT22;23441;50.856;6.076;2024-03-08T11:11:33;7.50;99.90
37594;DHT22;23441;50.856;6.076;2024-03-08T11:14:43;7.60;99.90
37594;DHT22;23441;50.856;6.076;2024-03-08T11:20:20;7.60;99.90
37594;DHT22;23441;50.856;6.076;2024-03-08T11:23:08;7.70;99.90
37594;DHT22;23441;50.856;6.076;2024-03-08T11:25:54;7.70;99.90
37594;DHT22;23441;50.856;6.076;2024-03-08T11:28:40;7.80;99.90
37594;DHT22;23441;50.856;6.076;2024-03-08T11:31:26;7.90;99.90
37594;DHT22;23441;50.856;6.076;2024-03-08T11:34:17;8.10;99.90
37594;DHT22;23441;50.856;6.076;2024-03-08T11:37:05;8.10;99.90
37594;DHT22;23441;50.856;6.076;2024-03-08T11:39:55;8.40;99.90
37594;DHT22;23441;50.856;6.076;2024-03-08T11:42:45;8.50;99.90
37594;DHT22;23441;50.856;6.076;2024-03-08T11:45:35;8.70;99.90
37594;DHT22;23441;50.856;6.076;2024-03-08T11:48:23;8.70;99.90
37594;DHT22;23441;50.856;6.076;2024-03-08T11:51:14;8.90;99.90
37594;DHT22;23441;50.856;6.076;2024-03-08T11:54:00;9.00;99.90
37594;DHT22;23441;50.856;6.076;2024-03-08T11:56:47;9.00;99.90
37594;DHT22;23441;50.856;6.076;2024-03-08T11:59:33;8.80;99.90
37594;DHT22;23441;50.856;6.076;2024-03-08T12:02:19;8.70;99.90
37594;DHT22;23441;50.856;6.076;2024-03-08T12:05:05;8.90;99.90
37594;DHT22;23441;50.856;6.076;2024-03-08T12:07:58;8.90;99.90
37594;DHT22;23441;50.856;6.076;2024-03-08T12:10:47;8.80;99.90
37594;DHT22;23441;50.856;6.076;2024-03-08T12:13:34;8.90;99.90
37594;DHT22;23441;50.856;6.076;2024-03-08T12:16:20;9.10;99.90
37594;DHT22;23441;50.856;6.076;2024-03-08T12:19:10;9.00;99.90
37594;DHT22;23441;50.856;6.076;2024-03-08T12:21:56;9.20;99.90
37594;DHT22;23441;50.856;6.076;2024-03-08T12:24:42;9.20;99.90
37594;DHT22;23441;50.856;6.076;2024-03-08T12:27:28;9.20;99.90
37594;DHT22;23441;50.856;6.076;2024-03-08T12:30:22;9.30;99.90
37594;DHT22;23441;50.856;6.076;2024-03-08T12:33:08;9.50;99.90
37594;DHT22;23441;50.856;6.076;2024-03-08T12:35:56;9.70;99.90
37594;DHT22;23441;50.856;6.076;2024-03-08T12:38:44;9.80;99.90
37594;DHT22;23441;50.856;6.076;2024-03-08T12:41:39;9.90;99.90
37594;DHT22;23441;50.856;6.076;2024-03-08T12:44:26;10.30;99.90
37594;DHT22;23441;50.856;6.076;2024-03-08T12:47:13;10.30;99.90
37594;DHT22;23441;50.856;6.076;2024-03-08T12:49:59;10.10;99.90
37594;DHT22;23441;50.856;6.076;2024-03-08T12:52:46;10.20;99.90
37594;DHT22;23441;50.856;6.076;2024-03-08T12:55:31;10.40;99.90
37594;DHT22;23441;50.856;6.076;2024-03-08T12:58:19;10.40;99.90
37594;DHT22;23441;50.856;6.076;2024-03-08T13:01:05;10.60;99.90
37594;DHT22;23441;50.856;6.076;2024-03-08T13:03:53;10.60;99.90
37594;DHT22;23441;50.856;6.076;2024-03-08T13:06:41;10.70;99.90
37594;DHT22;23441;50.856;6.076;2024-03-08T13:09:27;10.70;99.90
37594;DHT22;23441;50.856;6.076;2024-03-08T13:12:13;11.10;99.90
37594;DHT22;23441;50.856;6.076;2024-03-08T13:14:59;10.90;99.90
37594;DHT22;23441;50.856;6.076;2024-03-08T13:17:45;10.70;99.90
37594;DHT22;23441;50.856;6.076;2024-03-08T13:20:32;10.60;99.90
37594;DHT22;23441;50.856;6.076;2024-03-08T13:23:18;10.60;99.90
37594;DHT22;23441;50.856;6.076;2024-03-08T13:26:04;10.50;99.90
37594;DHT22;23441;50.856;6.076;2024-03-08T13:28:51;10.60;99.90
37594;DHT22;23441;50.856;6.076;2024-03-08T13:31:39;10.70;99.90
37594;DHT22;23441;50.856;6.076;2024-03-08T13:34:25;10.60;99.90
37594;DHT22;23441;50.856;6.076;2024-03-08T13:37:15;10.80;99.90
37594;DHT22;23441;50.856;6.076;2024-03-08T13:40:04;10.80;99.90
37594;DHT22;23441;50.856;6.076;2024-03-08T13:42:51;10.90;99.90
37594;DHT22;23441;50.856;6.076;2024-03-08T13:45:37;11.10;99.90
37594;DHT22;23441;50.856;6.076;2024-03-08T13:48:23;11.10;99.90
37594;DHT22;23441;50.856;6.076;2024-03-08T13:51:10;11.10;99.90
37594;DHT22;23441;50.856;6.076;2024-03-08T13:53:58;11.30;99.90
37594;DHT22;23441;50.856;6.076;2024-03-08T13:56:44;11.40;99.90
37594;DHT22;23441;50.856;6.076;2024-03-08T13:59:31;11.40;99.90
37594;DHT22;23441;50.856;6.076;2024-03-08T14:02:18;11.40;99.90
37594;DHT22;23441;50.856;6.076;2024-03-08T14:05:04;11.30;99.90
37594;DHT22;23441;50.856;6.076;2024-03-08T14:07:50;11.20;99.50
37594;DHT22;23441;50.856;6.076;2024-03-08T14:10:39;11.00;99.90
37594;DHT22;23441;50.856;6.076;2024-03-08T14:13:26;11.00;99.90
37594;DHT22;23441;50.856;6.076;2024-03-08T14:16:12;11.10;99.80
37594;DHT22;23441;50.856;6.076;2024-03-08T14:18:58;11.00;99.90
37594;DHT22;23441;50.856;6.076;2024-03-08T14:21:49;11.10;99.90
37594;DHT22;23441;50.856;6.076;2024-03-08T14:24:37;11.10;99.90
37594;DHT22;23441;50.856;6.076;2024-03-08T14:27:23;11.00;99.90
37594;DHT22;23441;50.856;6.076;2024-03-08T14:30:09;11.00;99.90
37594;DHT22;23441;50.856;6.076;2024-03-08T14:32:56;10.90;99.90
37594;DHT22;23441;50.856;6.076;2024-03-08T14:35:42;10.70;99.90
37594;DHT22;23441;50.856;6.076;2024-03-08T14:38:29;10.80;99.90
37594;DHT22;23441;50.856;6.076;2024-03-08T14:41:15;10.60;99.80
37594;DHT22;23441;50.856;6.076;2024-03-08T14:44:01;10.70;99.90
37594;DHT22;23441;50.856;6.076;2024-03-08T14:46:47;10.70;99.90
37594;DHT22;23441;50.856;6.076;2024-03-08T14:49:33;10.70;99.90
37594;DHT22;23441;50.856;6.076;2024-03-08T14:52:19;10.80;99.90
37594;DHT22;23441;50.856;6.076;2024-03-08T14:55:15;10.80;99.90
37594;DHT22;23441;50.856;6.076;2024-03-08T14:58:01;10.70;99.90
37594;DHT22;23441;50.856;6.076;2024-03-08T15:00:47;10.70;99.90
37594;DHT22;23441;50.856;6.076;2024-03-08T15:03:36;10.70;99.90
37594;DHT22;23441;50.856;6.076;2024-03-08T15:06:22;10.60;99.90
37594;DHT22;23441;50.856;6.076;2024-03-08T15:09:10;10.60;99.90
37594;DHT22;23441;50.856;6.076;2024-03-08T15:12:03;10.60;99.90
37594;DHT22;23441;50.856;6.076;2024-03-08T15:14:49;10.60;99.90
37594;DHT22;23441;50.856;6.076;2024-03-08T15:17:36;10.50;99.90
37594;DHT22;23441;50.856;6.076;2024-03-08T15:20:25;10.50;99.90
37594;DHT22;23441;50.856;6.076;2024-03-08T15:23:14;10.50;99.90
37594;DHT22;23441;50.856;6.076;2024-03-08T15:26:00;10.40;99.90
37594;DHT22;23441;50.856;6.076;2024-03-08T15:28:47;10.40;99.90
37594;DHT22;23441;50.856;6.076;2024-03-08T15:31:37;10.30;99.90
37594;DHT22;23441;50.856;6.076;2024-03-08T15:34:23;10.30;99.90
37594;DHT22;23441;50.856;6.076;2024-03-08T15:37:10;10.20;99.90
37594;DHT22;23441;50.856;6.076;2024-03-08T15:40:00;10.10;99.90
37594;DHT22;23441;50.856;6.076;2024-03-08T15:45:40;10.10;99.90
37594;DHT22;23441;50.856;6.076;2024-03-08T15:48:26;10.10;99.90
37594;DHT22;23441;50.856;6.076;2024-03-08T15:51:12;10.10;99.90
37594;DHT22;23441;50.856;6.076;2024-03-08T15:53:59;10.10;99.90
37594;DHT22;23441;50.856;6.076;2024-03-08T15:56:45;10.00;99.90
37594;DHT22;23441;50.856;6.076;2024-03-08T15:59:31;10.00;99.90
37594;DHT22;23441;50.856;6.076;2024-03-08T16:02:22;9.90;99.90
37594;DHT22;23441;50.856;6.076;2024-03-08T16:05:10;9.80;99.90
37594;DHT22;23441;50.856;6.076;2024-03-08T16:07:57;9.80;99.90
37594;DHT22;23441;50.856;6.076;2024-03-08T16:13:35;9.70;99.90
37594;DHT22;23441;50.856;6.076;2024-03-08T16:16:24;9.70;99.90
37594;DHT22;23441;50.856;6.076;2024-03-08T16:19:09;9.70;99.90
37594;DHT22;23441;50.856;6.076;2024-03-08T16:21:55;9.60;99.90
37594;DHT22;23441;50.856;6.076;2024-03-08T16:24:43;9.60;99.90
37594;DHT22;23441;50.856;6.076;2024-03-08T16:27:29;9.60;99.90
37594;DHT22;23441;50.856;6.076;2024-03-08T16:30:17;9.50;99.90
37594;DHT22;23441;50.856;6.076;2024-03-08T16:33:05;9.50;99.90
37594;DHT22;23441;50.856;6.076;2024-03-08T16:35:51;9.40;99.90
37594;DHT22;23441;50.856;6.076;2024-03-08T16:38:37;9.30;99.90
37594;DHT22;23441;50.856;6.076;2024-03-08T16:41:24;9.30;99.90
37594;DHT22;23441;50.856;6.076;2024-03-08T16:44:10;9.30;99.90
37594;DHT22;23441;50.856;6.076;2024-03-08T16:46:59;9.20;99.90
37594;DHT22;23441;50.856;6.076;2024-03-08T16:49:45;9.20;99.90
37594;DHT22;23441;50.856;6.076;2024-03-08T16:52:31;9.10;99.90
37594;DHT22;23441;50.856;6.076;2024-03-08T16:55:17;9.00;99.90
37594;DHT22;23441;50.856;6.076;2024-03-08T16:58:04;9.00;99.90
37594;DHT22;23441;50.856;6.076;2024-03-08T17:00:50;8.90;99.90
37594;DHT22;23441;50.856;6.076;2024-03-08T17:03:40;8.90;99.90
37594;DHT22;23441;50.856;6.076;2024-03-08T17:06:26;8.80;99.90
37594;DHT22;23441;50.856;6.076;2024-03-08T17:09:12;8.70;99.90
37594;DHT22;23441;50.856;6.076;2024-03-08T17:12:01;8.70;99.90
37594;DHT22;23441;50.856;6.076;2024-03-08T17:14:47;8.60;99.90
37594;DHT22;23441;50.856;6.076;2024-03-08T17:17:33;8.50;99.90
37594;DHT22;23441;50.856;6.076;2024-03-08T17:20:21;8.40;99.90
37594;DHT22;23441;50.856;6.076;2024-03-08T17:23:09;8.40;99.90
37594;DHT22;23441;50.856;6.076;2024-03-08T17:25:58;8.40;99.90
37594;DHT22;23441;50.856;6.076;2024-03-08T17:28:44;8.30;99.90
37594;DHT22;23441;50.856;6.076;2024-03-08T17:31:32;8.30;99.90
37594;DHT22;23441;50.856;6.076;2024-03-08T17:34:20;8.30;99.90
37594;DHT22;23441;50.856;6.076;2024-03-08T17:37:05;8.20;99.90
37594;DHT22;23441;50.856;6.076;2024-03-08T17:39:52;8.10;99.90
37594;DHT22;23441;50.856;6.076;2024-03-08T17:42:40;8.10;99.90
37594;DHT22;23441;50.856;6.076;2024-03-08T17:45:28;8.10;99.90
37594;DHT22;23441;50.856;6.076;2024-03-08T17:48:16;8.00;99.90
37594;DHT22;23441;50.856;6.076;2024-03-08T17:51:02;7.90;99.90
37594;DHT22;23441;50.856;6.076;2024-03-08T17:53:48;7.90;99.90
37594;DHT22;23441;50.856;6.076;2024-03-08T17:56:45;7.90;99.90